sensor_id;sensor_type;location;lat;lon;timestamp;temperature;humidity
6421;DHT22;3243;50.958;7.012;2022-08-03T00:15:10;20.40;99.90
6421;DHT22;3243;50.958;7.012;2022-08-03T00:17:43;20.40;99.90
6421;DHT22;3243;50.958;7.012;2022-08-03T00:22:47;20.40;99.90
6421;DHT22;3243;50.958;7.012;2022-08-03T00:42:55;20.20;99.90
6421;DHT22;3243;50.958;7.012;2022-08-03T01:05:09;20.10;99.90
6421;DHT22;3243;50.958;7.012;2022-08-03T01:48:52;19.50;99.90
6421;DHT22;3243;50.958;7.012;2022-08-03T02:03:43;19.40;99.90
6421;DHT22;3243;50.958;7.012;2022-08-03T02:06:29;19.30;99.90
6421;DHT22;3243;50.958;7.012;2022-08-03T02:09:20;19.30;99.90
6421;DHT22;3243;50.958;7.012;2022-08-03T02:11:48;19.30;99.90
6421;DHT22;3243;50.958;7.012;2022-08-03T02:14:16;19.30;99.90
6421;DHT22;3243;50.958;7.012;2022-08-03T02:24:27;19.20;99.90
6421;DHT22;3243;50.958;7.012;2022-08-03T02:32:09;19.10;99.90
6421;DHT22;3243;50.958;7.012;2022-08-03T02:42:08;19.00;99.90
6421;DHT22;3243;50.958;7.012;2022-08-03T02:44:39;18.90;99.90
6421;DHT22;3243;50.958;7.012;2022-08-03T02:47:10;18.80;99.90
6421;DHT22;3243;50.958;7.012;2022-08-03T02:49:38;18.80;99.90
6421;DHT22;3243;50.958;7.012;2022-08-03T02:52:19;18.70;99.90
6421;DHT22;3243;50.958;7.012;2022-08-03T02:54:48;18.70;99.90
6421;DHT22;3243;50.958;7.012;2022-08-03T02:57:17;18.60;99.90
6421;DHT22;3243;50.958;7.012;2022-08-03T02:59:45;18.50;99.90
6421;DHT22;3243;50.958;7.012;2022-08-03T03:02:14;18.70;99.90
6421;DHT22;3243;50.958;7.012;2022-08-03T03:04:43;18.70;99.90
6421;DHT22;3243;50.958;7.012;2022-08-03T03:07:30;18.60;99.90
6421;DHT22;3243;50.958;7.012;2022-08-03T03:10:21;18.60;99.90
6421;DHT22;3243;50.958;7.012;2022-08-03T03:12:51;18.50;99.90
6421;DHT22;3243;50.958;7.012;2022-08-03T03:15:18;18.60;99.90
6421;DHT22;3243;50.958;7.012;2022-08-03T03:17:47;18.60;99.90
6421;DHT22;3243;50.958;7.012;2022-08-03T03:20:16;18.60;99.90
6421;DHT22;3243;50.958;7.012;2022-08-03T03:22:57;18.60;99.90
6421;DHT22;3243;50.958;7.012;2022-08-03T03:25:25;18.60;99.90
6421;DHT22;3243;50.958;7.012;2022-08-03T03:30:19;18.50;99.90
6421;DHT22;3243;50.958;7.012;2022-08-03T03:32:46;18.60;99.90
6421;DHT22;3243;50.958;7.012;2022-08-03T03:35:13;18.60;99.90
6421;DHT22;3243;50.958;7.012;2022-08-03T03:40:09;18.60;99.90
6421;DHT22;3243;50.958;7.012;2022-08-03T03:42:36;18.40;99.90
6421;DHT22;3243;50.958;7.012;2022-08-03T03:45:07;18.50;99.90
6421;DHT22;3243;50.958;7.012;2022-08-03T03:47:35;18.30;99.90
6421;DHT22;3243;50.958;7.012;2022-08-03T03:50:03;18.50;99.90
6421;DHT22;3243;50.958;7.012;2022-08-03T03:52:31;18.50;99.90
6421;DHT22;3243;50.958;7.012;2022-08-03T03:54:59;18.40;99.90
6421;DHT22;3243;50.958;7.012;2022-08-03T03:57:27;18.50;99.90
6421;DHT22;3243;50.958;7.012;2022-08-03T04:02:22;18.50;99.90
6421;DHT22;3243;50.958;7.012;2022-08-03T04:07:57;18.60;99.90
6421;DHT22;3243;50.958;7.012;2022-08-03T04:10:46;18.60;99.90
6421;DHT22;3243;50.958;7.012;2022-08-03T04:13:41;18.60;99.90
6421;DHT22;3243;50.958;7.012;2022-08-03T04:16:11;18.60;99.90
6421;DHT22;3243;50.958;7.012;2022-08-03T04:18:39;18.60;99.90
6421;DHT22;3243;50.958;7.012;2022-08-03T04:21:09;18.70;99.90
6421;DHT22;3243;50.958;7.012;2022-08-03T04:23:41;18.70;99.90
6421;DHT22;3243;50.958;7.012;2022-08-03T04:26:12;18.80;99.90
6421;DHT22;3243;50.958;7.012;2022-08-03T04:28:42;18.80;99.90
6421;DHT22;3243;50.958;7.012;2022-08-03T04:31:12;18.80;99.90
6421;DHT22;3243;50.958;7.012;2022-08-03T04:33:40;18.90;99.90
6421;DHT22;3243;50.958;7.012;2022-08-03T04:36:11;19.00;99.90
6421;DHT22;3243;50.958;7.012;2022-08-03T04:38:57;18.90;99.90
6421;DHT22;3243;50.958;7.012;2022-08-03T04:41:26;19.10;99.90
6421;DHT22;3243;50.958;7.012;2022-08-03T04:43:56;19.10;99.90
6421;DHT22;3243;50.958;7.012;2022-08-03T04:46:27;19.20;99.90
6421;DHT22;3243;50.958;7.012;2022-08-03T04:48:55;19.10;99.90
6421;DHT22;3243;50.958;7.012;2022-08-03T04:51:22;19.10;99.90
6421;DHT22;3243;50.958;7.012;2022-08-03T04:53:50;19.20;99.90
6421;DHT22;3243;50.958;7.012;2022-08-03T04:56:18;19.10;99.90
6421;DHT22;3243;50.958;7.012;2022-08-03T04:58:45;19.20;99.90
6421;DHT22;3243;50.958;7.012;2022-08-03T05:03:39;19.40;99.90
6421;DHT22;3243;50.958;7.012;2022-08-03T05:08:37;19.40;99.90
6421;DHT22;3243;50.958;7.012;2022-08-03T05:11:12;19.50;99.90
6421;DHT22;3243;50.958;7.012;2022-08-03T05:13:39;19.50;99.90
6421;DHT22;3243;50.958;7.012;2022-08-03T05:18:33;19.40;99.90
6421;DHT22;3243;50.958;7.012;2022-08-03T05:25:55;19.60;99.90
6421;DHT22;3243;50.958;7.012;2022-08-03T05:30:49;19.70;99.90
6421;DHT22;3243;50.958;7.012;2022-08-03T05:35:43;19.70;99.90
6421;DHT22;3243;50.958;7.012;2022-08-03T05:38:29;19.70;99.90
6421;DHT22;3243;50.958;7.012;2022-08-03T05:41:02;19.70;99.90
6421;DHT22;3243;50.958;7.012;2022-08-03T05:43:52;19.90;99.90
6421;DHT22;3243;50.958;7.012;2022-08-03T05:46:20;20.10;99.90
6421;DHT22;3243;50.958;7.012;2022-08-03T05:48:47;20.20;99.90
6421;DHT22;3243;50.958;7.012;2022-08-03T05:51:14;20.30;99.90
6421;DHT22;3243;50.958;7.012;2022-08-03T05:53:42;20.60;99.90
6421;DHT22;3243;50.958;7.012;2022-08-03T05:56:09;20.90;99.90
6421;DHT22;3243;50.958;7.012;2022-08-03T05:58:43;21.10;99.90
6421;DHT22;3243;50.958;7.012;2022-08-03T06:01:10;21.90;99.90
6421;DHT22;3243;50.958;7.012;2022-08-03T06:03:37;23.30;99.90
6421;DHT22;3243;50.958;7.012;2022-08-03T06:08:31;26.40;99.90
6421;DHT22;3243;50.958;7.012;2022-08-03T06:10:58;27.60;99.90
6421;DHT22;3243;50.958;7.012;2022-08-03T06:15:52;29.50;99.90
6421;DHT22;3243;50.958;7.012;2022-08-03T06:18:19;30.30;99.90
6421;DHT22;3243;50.958;7.012;2022-08-03T06:20:46;31.10;99.90
6421;DHT22;3243;50.958;7.012;2022-08-03T06:23:16;31.50;99.90
6421;DHT22;3243;50.958;7.012;2022-08-03T06:25:44;32.10;99.90
6421;DHT22;3243;50.958;7.012;2022-08-03T06:28:11;32.40;99.90
6421;DHT22;3243;50.958;7.012;2022-08-03T06:31:00;32.10;99.90
6421;DHT22;3243;50.958;7.012;2022-08-03T06:33:27;31.90;99.90
6421;DHT22;3243;50.958;7.012;2022-08-03T06:41:08;32.30;99.90
6421;DHT22;3243;50.958;7.012;2022-08-03T06:43:35;31.60;99.90
6421;DHT22;3243;50.958;7.012;2022-08-03T06:48:51;29.40;99.90
6421;DHT22;3243;50.958;7.012;2022-08-03T06:51:18;28.30;99.90
6421;DHT22;3243;50.958;7.012;2022-08-03T06:53:45;27.50;99.90
6421;DHT22;3243;50.958;7.012;2022-08-03T06:56:12;26.80;99.90
6421;DHT22;3243;50.958;7.012;2022-08-03T06:58:38;26.40;99.90
6421;DHT22;3243;50.958;7.012;2022-08-03T07:01:05;26.00;99.90
6421;DHT22;3243;50.958;7.012;2022-08-03T07:05:59;25.40;99.90
6421;DHT22;3243;50.958;7.012;2022-08-03T07:11:00;25.30;99.90
6421;DHT22;3243;50.958;7.012;2022-08-03T07:13:29;25.20;99.90
6421;DHT22;3243;50.958;7.012;2022-08-03T07:15:56;25.20;99.90
6421;DHT22;3243;50.958;7.012;2022-08-03T07:28:19;25.50;99.90
6421;DHT22;3243;50.958;7.012;2022-08-03T07:30:46;25.60;99.90
6421;DHT22;3243;50.958;7.012;2022-08-03T07:33:13;25.80;99.90
6421;DHT22;3243;50.958;7.012;2022-08-03T07:35:40;26.00;99.90
6421;DHT22;3243;50.958;7.012;2022-08-03T07:38:07;25.90;99.90
6421;DHT22;3243;50.958;7.012;2022-08-03T07:40:34;26.00;99.90
6421;DHT22;3243;50.958;7.012;2022-08-03T07:45:30;26.10;99.90
6421;DHT22;3243;50.958;7.012;2022-08-03T07:47:57;26.20;99.90
6421;DHT22;3243;50.958;7.012;2022-08-03T07:50:23;26.40;99.90
6421;DHT22;3243;50.958;7.012;2022-08-03T07:52:51;26.50;99.90
6421;DHT22;3243;50.958;7.012;2022-08-03T07:55:21;26.50;99.90
6421;DHT22;3243;50.958;7.012;2022-08-03T07:58:09;26.60;99.90
6421;DHT22;3243;50.958;7.012;2022-08-03T08:03:05;26.80;99.90
6421;DHT22;3243;50.958;7.012;2022-08-03T08:05:32;26.80;99.90
6421;DHT22;3243;50.958;7.012;2022-08-03T08:08:02;26.90;99.90
6421;DHT22;3243;50.958;7.012;2022-08-03T08:10:30;27.10;99.90
6421;DHT22;3243;50.958;7.012;2022-08-03T08:12:58;27.10;99.90
6421;DHT22;3243;50.958;7.012;2022-08-03T08:15:25;27.20;99.90
6421;DHT22;3243;50.958;7.012;2022-08-03T08:17:54;27.20;99.90
6421;DHT22;3243;50.958;7.012;2022-08-03T08:20:28;27.40;99.90
6421;DHT22;3243;50.958;7.012;2022-08-03T08:23:02;27.50;99.90
6421;DHT22;3243;50.958;7.012;2022-08-03T08:25:50;27.50;99.90
6421;DHT22;3243;50.958;7.012;2022-08-03T08:28:18;27.50;99.90
6421;DHT22;3243;50.958;7.012;2022-08-03T08:30:58;27.60;99.90
6421;DHT22;3243;50.958;7.012;2022-08-03T08:36:12;27.70;99.90
6421;DHT22;3243;50.958;7.012;2022-08-03T08:41:11;27.80;99.90
6421;DHT22;3243;50.958;7.012;2022-08-03T08:43:39;27.90;99.90
6421;DHT22;3243;50.958;7.012;2022-08-03T08:46:07;27.90;99.90
6421;DHT22;3243;50.958;7.012;2022-08-03T08:48:40;27.90;99.90
6421;DHT22;3243;50.958;7.012;2022-08-03T08:53:36;28.00;99.90
6421;DHT22;3243;50.958;7.012;2022-08-03T08:56:04;28.10;99.90
6421;DHT22;3243;50.958;7.012;2022-08-03T08:58:36;28.00;99.90
6421;DHT22;3243;50.958;7.012;2022-08-03T09:01:04;28.00;99.90
6421;DHT22;3243;50.958;7.012;2022-08-03T09:03:34;28.00;99.90
6421;DHT22;3243;50.958;7.012;2022-08-03T09:06:01;28.10;99.90
6421;DHT22;3243;50.958;7.012;2022-08-03T09:08:29;28.20;99.90
6421;DHT22;3243;50.958;7.012;2022-08-03T09:13:23;28.30;99.90
6421;DHT22;3243;50.958;7.012;2022-08-03T09:16:10;28.40;99.90
6421;DHT22;3243;50.958;7.012;2022-08-03T09:18:41;28.50;99.90
6421;DHT22;3243;50.958;7.012;2022-08-03T09:21:13;28.40;99.90
6421;DHT22;3243;50.958;7.012;2022-08-03T09:23:58;28.40;99.90
6421;DHT22;3243;50.958;7.012;2022-08-03T09:26:31;28.40;99.90
6421;DHT22;3243;50.958;7.012;2022-08-03T09:31:39;28.40;99.90
6421;DHT22;3243;50.958;7.012;2022-08-03T09:34:14;28.50;99.90
6421;DHT22;3243;50.958;7.012;2022-08-03T09:36:44;28.60;99.90
6421;DHT22;3243;50.958;7.012;2022-08-03T09:39:16;28.70;99.90
6421;DHT22;3243;50.958;7.012;2022-08-03T09:41:46;28.80;99.90
6421;DHT22;3243;50.958;7.012;2022-08-03T09:44:13;28.80;99.90
6421;DHT22;3243;50.958;7.012;2022-08-03T09:46:54;29.00;99.90
6421;DHT22;3243;50.958;7.012;2022-08-03T09:49:22;28.90;99.90
6421;DHT22;3243;50.958;7.012;2022-08-03T09:54:37;29.10;99.90
6421;DHT22;3243;50.958;7.012;2022-08-03T09:57:04;29.10;99.90
6421;DHT22;3243;50.958;7.012;2022-08-03T09:59:32;29.10;99.90
6421;DHT22;3243;50.958;7.012;2022-08-03T10:01:59;29.20;99.90
6421;DHT22;3243;50.958;7.012;2022-08-03T10:07:09;29.20;99.90
6421;DHT22;3243;50.958;7.012;2022-08-03T10:09:36;29.30;99.90
6421;DHT22;3243;50.958;7.012;2022-08-03T10:12:12;29.20;99.90
6421;DHT22;3243;50.958;7.012;2022-08-03T10:14:40;29.10;99.90
6421;DHT22;3243;50.958;7.012;2022-08-03T10:17:10;29.20;99.90
6421;DHT22;3243;50.958;7.012;2022-08-03T10:19:38;29.40;99.90
6421;DHT22;3243;50.958;7.012;2022-08-03T10:22:17;29.60;99.90
6421;DHT22;3243;50.958;7.012;2022-08-03T10:25:07;29.60;99.90
6421;DHT22;3243;50.958;7.012;2022-08-03T10:27:37;29.50;99.90
6421;DHT22;3243;50.958;7.012;2022-08-03T10:30:09;29.60;99.90
6421;DHT22;3243;50.958;7.012;2022-08-03T10:32:40;29.80;99.90
6421;DHT22;3243;50.958;7.012;2022-08-03T10:35:11;29.90;99.90
6421;DHT22;3243;50.958;7.012;2022-08-03T10:38:01;29.90;99.90
6421;DHT22;3243;50.958;7.012;2022-08-03T10:40:31;29.80;99.90
6421;DHT22;3243;50.958;7.012;2022-08-03T10:43:41;29.90;99.90
6421;DHT22;3243;50.958;7.012;2022-08-03T10:46:07;30.10;99.90
6421;DHT22;3243;50.958;7.012;2022-08-03T10:48:34;30.10;99.90
6421;DHT22;3243;50.958;7.012;2022-08-03T10:51:02;30.10;99.90
6421;DHT22;3243;50.958;7.012;2022-08-03T10:53:42;30.10;99.90
6421;DHT22;3243;50.958;7.012;2022-08-03T11:02:05;30.20;99.90
6421;DHT22;3243;50.958;7.012;2022-08-03T11:04:35;30.40;99.90
6421;DHT22;3243;50.958;7.012;2022-08-03T11:07:23;30.50;99.90
6421;DHT22;3243;50.958;7.012;2022-08-03T11:09:52;30.30;99.90
6421;DHT22;3243;50.958;7.012;2022-08-03T11:12:27;30.40;99.90
6421;DHT22;3243;50.958;7.012;2022-08-03T11:15:03;30.40;99.90
6421;DHT22;3243;50.958;7.012;2022-08-03T11:17:31;30.50;99.90
6421;DHT22;3243;50.958;7.012;2022-08-03T11:20:12;30.40;99.90
6421;DHT22;3243;50.958;7.012;2022-08-03T11:22:49;30.30;99.90
6421;DHT22;3243;50.958;7.012;2022-08-03T11:28:40;30.50;99.90
6421;DHT22;3243;50.958;7.012;2022-08-03T11:34:14;30.60;99.90
6421;DHT22;3243;50.958;7.012;2022-08-03T11:39:48;31.00;99.90
6421;DHT22;3243;50.958;7.012;2022-08-03T11:44:57;31.10;99.90
6421;DHT22;3243;50.958;7.012;2022-08-03T11:47:25;31.20;99.90
6421;DHT22;3243;50.958;7.012;2022-08-03T11:49:56;31.10;99.90
6421;DHT22;3243;50.958;7.012;2022-08-03T11:54:54;31.00;99.90
6421;DHT22;3243;50.958;7.012;2022-08-03T12:00:21;31.20;99.90
6421;DHT22;3243;50.958;7.012;2022-08-03T12:05:32;31.40;99.90
6421;DHT22;3243;50.958;7.012;2022-08-03T12:10:32;31.70;99.90
6421;DHT22;3243;50.958;7.012;2022-08-03T12:13:01;31.70;99.90
6421;DHT22;3243;50.958;7.012;2022-08-03T12:15:30;31.70;99.90
6421;DHT22;3243;50.958;7.012;2022-08-03T12:18:00;31.70;99.90
6421;DHT22;3243;50.958;7.012;2022-08-03T12:20:30;31.70;99.90
6421;DHT22;3243;50.958;7.012;2022-08-03T12:23:04;31.80;99.90
6421;DHT22;3243;50.958;7.012;2022-08-03T12:25:32;31.60;99.90
6421;DHT22;3243;50.958;7.012;2022-08-03T12:31:03;31.60;99.90
6421;DHT22;3243;50.958;7.012;2022-08-03T12:33:53;31.60;99.90
6421;DHT22;3243;50.958;7.012;2022-08-03T12:36:18;31.80;99.90
6421;DHT22;3243;50.958;7.012;2022-08-03T12:38:55;31.80;99.90
6421;DHT22;3243;50.958;7.012;2022-08-03T12:41:34;31.70;99.90
6421;DHT22;3243;50.958;7.012;2022-08-03T12:44:03;31.80;99.90
6421;DHT22;3243;50.958;7.012;2022-08-03T12:46:36;32.10;99.90
6421;DHT22;3243;50.958;7.012;2022-08-03T12:49:08;32.10;99.90
6421;DHT22;3243;50.958;7.012;2022-08-03T12:54:04;31.90;99.90
6421;DHT22;3243;50.958;7.012;2022-08-03T12:56:30;32.00;99.90
6421;DHT22;3243;50.958;7.012;2022-08-03T12:58:57;32.20;99.90
6421;DHT22;3243;50.958;7.012;2022-08-03T13:01:24;32.30;99.90
6421;DHT22;3243;50.958;7.012;2022-08-03T13:03:53;32.30;99.90
6421;DHT22;3243;50.958;7.012;2022-08-03T13:06:24;32.50;99.90
6421;DHT22;3243;50.958;7.012;2022-08-03T13:09:05;32.60;99.90
6421;DHT22;3243;50.958;7.012;2022-08-03T13:14:19;32.50;99.90
6421;DHT22;3243;50.958;7.012;2022-08-03T13:16:47;32.60;99.90
6421;DHT22;3243;50.958;7.012;2022-08-03T13:21:42;32.40;99.90
6421;DHT22;3243;50.958;7.012;2022-08-03T13:24:30;32.40;99.90
6421;DHT22;3243;50.958;7.012;2022-08-03T13:26:58;32.40;99.90
6421;DHT22;3243;50.958;7.012;2022-08-03T13:31:52;32.30;99.90
6421;DHT22;3243;50.958;7.012;2022-08-03T13:34:19;32.20;99.90
6421;DHT22;3243;50.958;7.012;2022-08-03T13:36:49;32.30;99.90
6421;DHT22;3243;50.958;7.012;2022-08-03T13:39:37;32.30;99.90
6421;DHT22;3243;50.958;7.012;2022-08-03T13:44:52;32.10;99.90
6421;DHT22;3243;50.958;7.012;2022-08-03T13:47:19;31.90;99.90
6421;DHT22;3243;50.958;7.012;2022-08-03T13:49:46;32.00;99.90
6421;DHT22;3243;50.958;7.012;2022-08-03T13:52:26;32.00;99.90
6421;DHT22;3243;50.958;7.012;2022-08-03T13:57:20;31.80;99.90
6421;DHT22;3243;50.958;7.012;2022-08-03T14:00:08;31.90;99.90
6421;DHT22;3243;50.958;7.012;2022-08-03T14:02:35;32.00;99.90
6421;DHT22;3243;50.958;7.012;2022-08-03T14:05:02;32.00;99.90
6421;DHT22;3243;50.958;7.012;2022-08-03T14:07:28;32.10;99.90
6421;DHT22;3243;50.958;7.012;2022-08-03T14:12:22;32.30;99.90
6421;DHT22;3243;50.958;7.012;2022-08-03T14:19:44;32.30;99.90
6421;DHT22;3243;50.958;7.012;2022-08-03T14:22:19;32.10;99.90
6421;DHT22;3243;50.958;7.012;2022-08-03T14:24:46;32.30;99.90
6421;DHT22;3243;50.958;7.012;2022-08-03T14:27:14;32.10;99.90
6421;DHT22;3243;50.958;7.012;2022-08-03T14:29:41;32.20;99.90
6421;DHT22;3243;50.958;7.012;2022-08-03T14:32:08;32.20;99.90
6421;DHT22;3243;50.958;7.012;2022-08-03T14:34:39;32.30;99.90
6421;DHT22;3243;50.958;7.012;2022-08-03T14:37:06;32.20;99.90
6421;DHT22;3243;50.958;7.012;2022-08-03T14:39:33;32.00;99.90
6421;DHT22;3243;50.958;7.012;2022-08-03T14:44:47;31.90;99.90
6421;DHT22;3243;50.958;7.012;2022-08-03T14:49:42;31.70;99.90
6421;DHT22;3243;50.958;7.012;2022-08-03T14:52:29;31.50;99.90
6421;DHT22;3243;50.958;7.012;2022-08-03T14:54:57;31.40;99.90
6421;DHT22;3243;50.958;7.012;2022-08-03T14:57:25;31.30;99.90
6421;DHT22;3243;50.958;7.012;2022-08-03T14:59:51;31.30;99.90
6421;DHT22;3243;50.958;7.012;2022-08-03T15:02:23;31.20;99.90
6421;DHT22;3243;50.958;7.012;2022-08-03T15:04:51;31.20;99.90
6421;DHT22;3243;50.958;7.012;2022-08-03T15:07:18;31.10;99.90
6421;DHT22;3243;50.958;7.012;2022-08-03T15:09:46;31.20;99.90
6421;DHT22;3243;50.958;7.012;2022-08-03T15:12:13;31.20;99.90
6421;DHT22;3243;50.958;7.012;2022-08-03T15:22:21;31.80;99.90
6421;DHT22;3243;50.958;7.012;2022-08-03T15:25:03;31.90;99.90
6421;DHT22;3243;50.958;7.012;2022-08-03T15:27:51;32.00;99.90
6421;DHT22;3243;50.958;7.012;2022-08-03T15:30:30;32.10;99.90
6421;DHT22;3243;50.958;7.012;2022-08-03T15:32:56;32.20;99.90
6421;DHT22;3243;50.958;7.012;2022-08-03T15:35:23;32.20;99.90
6421;DHT22;3243;50.958;7.012;2022-08-03T15:42:44;32.30;99.90
6421;DHT22;3243;50.958;7.012;2022-08-03T15:47:43;32.20;99.90
6421;DHT22;3243;50.958;7.012;2022-08-03T15:55:05;32.30;99.90
6421;DHT22;3243;50.958;7.012;2022-08-03T16:00:19;32.40;99.90
6421;DHT22;3243;50.958;7.012;2022-08-03T16:02:59;32.40;99.90
6421;DHT22;3243;50.958;7.012;2022-08-03T16:12:58;32.10;99.90
6421;DHT22;3243;50.958;7.012;2022-08-03T16:17:53;32.00;99.90
6421;DHT22;3243;50.958;7.012;2022-08-03T16:20:20;32.00;99.90
6421;DHT22;3243;50.958;7.012;2022-08-03T16:23:01;31.90;99.90
6421;DHT22;3243;50.958;7.012;2022-08-03T16:25:38;32.00;99.90
6421;DHT22;3243;50.958;7.012;2022-08-03T16:30:41;32.40;99.90
6421;DHT22;3243;50.958;7.012;2022-08-03T16:33:08;32.40;99.90
6421;DHT22;3243;50.958;7.012;2022-08-03T16:35:35;32.50;99.90
6421;DHT22;3243;50.958;7.012;2022-08-03T16:38:03;32.60;99.90
6421;DHT22;3243;50.958;7.012;2022-08-03T16:43:13;32.60;99.90
6421;DHT22;3243;50.958;7.012;2022-08-03T16:45:45;32.60;99.90
6421;DHT22;3243;50.958;7.012;2022-08-03T16:48:13;32.70;99.90
6421;DHT22;3243;50.958;7.012;2022-08-03T16:50:41;32.80;99.90
6421;DHT22;3243;50.958;7.012;2022-08-03T16:53:09;32.80;99.90
6421;DHT22;3243;50.958;7.012;2022-08-03T16:55:42;32.70;99.90
6421;DHT22;3243;50.958;7.012;2022-08-03T16:58:23;32.80;99.90
6421;DHT22;3243;50.958;7.012;2022-08-03T17:01:12;32.70;99.90
6421;DHT22;3243;50.958;7.012;2022-08-03T17:03:58;32.50;99.90
6421;DHT22;3243;50.958;7.012;2022-08-03T17:06:34;32.40;99.90
6421;DHT22;3243;50.958;7.012;2022-08-03T17:09:06;32.50;99.90
6421;DHT22;3243;50.958;7.012;2022-08-03T17:11:37;32.40;99.90
6421;DHT22;3243;50.958;7.012;2022-08-03T17:14:10;32.40;99.90
6421;DHT22;3243;50.958;7.012;2022-08-03T17:19:20;32.30;99.90
6421;DHT22;3243;50.958;7.012;2022-08-03T17:21:55;32.10;99.90
6421;DHT22;3243;50.958;7.012;2022-08-03T17:24:38;31.90;99.90
6421;DHT22;3243;50.958;7.012;2022-08-03T17:27:09;31.80;99.90
6421;DHT22;3243;50.958;7.012;2022-08-03T17:30:07;31.60;99.90
6421;DHT22;3243;50.958;7.012;2022-08-03T17:32:36;31.50;99.90
6421;DHT22;3243;50.958;7.012;2022-08-03T17:35:09;31.50;99.90
6421;DHT22;3243;50.958;7.012;2022-08-03T17:45:19;31.20;99.90
6421;DHT22;3243;50.958;7.012;2022-08-03T17:47:46;31.20;99.90
6421;DHT22;3243;50.958;7.012;2022-08-03T17:50:26;31.20;99.90
6421;DHT22;3243;50.958;7.012;2022-08-03T17:53:07;31.10;99.90
6421;DHT22;3243;50.958;7.012;2022-08-03T17:56:20;31.10;99.90
6421;DHT22;3243;50.958;7.012;2022-08-03T17:59:09;30.90;99.90
6421;DHT22;3243;50.958;7.012;2022-08-03T18:01:48;30.80;99.90
6421;DHT22;3243;50.958;7.012;2022-08-03T18:05:01;30.80;99.90
6421;DHT22;3243;50.958;7.012;2022-08-03T18:07:47;30.80;99.90
6421;DHT22;3243;50.958;7.012;2022-08-03T18:10:33;30.80;99.90
6421;DHT22;3243;50.958;7.012;2022-08-03T18:13:03;30.80;99.90
6421;DHT22;3243;50.958;7.012;2022-08-03T18:15:45;30.70;99.90
6421;DHT22;3243;50.958;7.012;2022-08-03T18:18:15;30.60;99.90
6421;DHT22;3243;50.958;7.012;2022-08-03T18:21:01;30.60;99.90
6421;DHT22;3243;50.958;7.012;2022-08-03T18:23:33;30.60;99.90
6421;DHT22;3243;50.958;7.012;2022-08-03T18:26:06;30.40;99.90
6421;DHT22;3243;50.958;7.012;2022-08-03T18:28:36;30.40;99.90
6421;DHT22;3243;50.958;7.012;2022-08-03T18:31:09;30.40;99.90
6421;DHT22;3243;50.958;7.012;2022-08-03T18:33:39;30.20;99.90
6421;DHT22;3243;50.958;7.012;2022-08-03T18:36:26;30.00;99.90
6421;DHT22;3243;50.958;7.012;2022-08-03T18:39:00;30.10;99.90
6421;DHT22;3243;50.958;7.012;2022-08-03T18:41:29;30.00;99.90
6421;DHT22;3243;50.958;7.012;2022-08-03T18:52:03;29.70;99.90
6421;DHT22;3243;50.958;7.012;2022-08-03T19:00:14;29.50;99.90
6421;DHT22;3243;50.958;7.012;2022-08-03T19:02:58;29.30;99.90
6421;DHT22;3243;50.958;7.012;2022-08-03T19:08:20;29.10;99.90
6421;DHT22;3243;50.958;7.012;2022-08-03T19:10:53;29.00;99.90
6421;DHT22;3243;50.958;7.012;2022-08-03T19:13:49;29.00;99.90
6421;DHT22;3243;50.958;7.012;2022-08-03T19:16:26;28.90;99.90
6421;DHT22;3243;50.958;7.012;2022-08-03T19:18:58;28.80;99.90
6421;DHT22;3243;50.958;7.012;2022-08-03T19:21:28;28.80;99.90
6421;DHT22;3243;50.958;7.012;2022-08-03T19:24:00;28.80;99.90
6421;DHT22;3243;50.958;7.012;2022-08-03T19:26:36;28.60;99.90
6421;DHT22;3243;50.958;7.012;2022-08-03T19:29:06;28.50;99.90
6421;DHT22;3243;50.958;7.012;2022-08-03T19:31:43;28.50;99.90
6421;DHT22;3243;50.958;7.012;2022-08-03T19:34:26;28.50;99.90
6421;DHT22;3243;50.958;7.012;2022-08-03T19:36:54;28.30;99.90
6421;DHT22;3243;50.958;7.012;2022-08-03T19:41:51;28.10;99.90
6421;DHT22;3243;50.958;7.012;2022-08-03T19:44:28;28.00;99.90
6421;DHT22;3243;50.958;7.012;2022-08-03T19:47:10;27.90;99.90
6421;DHT22;3243;50.958;7.012;2022-08-03T19:49:44;27.60;99.90
6421;DHT22;3243;50.958;7.012;2022-08-03T19:52:33;27.40;99.90
6421;DHT22;3243;50.958;7.012;2022-08-03T19:55:09;27.20;99.90
6421;DHT22;3243;50.958;7.012;2022-08-03T19:57:40;27.10;99.90
6421;DHT22;3243;50.958;7.012;2022-08-03T20:00:09;26.90;99.90
6421;DHT22;3243;50.958;7.012;2022-08-03T20:02:39;26.70;99.90
6421;DHT22;3243;50.958;7.012;2022-08-03T20:05:07;26.70;99.90
6421;DHT22;3243;50.958;7.012;2022-08-03T20:07:41;26.70;99.90
6421;DHT22;3243;50.958;7.012;2022-08-03T20:10:14;26.70;99.90
6421;DHT22;3243;50.958;7.012;2022-08-03T20:12:43;26.70;99.90
6421;DHT22;3243;50.958;7.012;2022-08-03T20:15:10;27.00;99.90
6421;DHT22;3243;50.958;7.012;2022-08-03T20:17:38;26.90;99.90
6421;DHT22;3243;50.958;7.012;2022-08-03T20:20:32;26.60;99.90
6421;DHT22;3243;50.958;7.012;2022-08-03T20:23:04;26.60;99.90
6421;DHT22;3243;50.958;7.012;2022-08-03T20:28:32;26.30;99.90
6421;DHT22;3243;50.958;7.012;2022-08-03T20:31:15;26.30;99.90
6421;DHT22;3243;50.958;7.012;2022-08-03T20:33:42;26.20;99.90
6421;DHT22;3243;50.958;7.012;2022-08-03T20:36:15;26.20;99.90
6421;DHT22;3243;50.958;7.012;2022-08-03T20:46:08;25.60;99.90
6421;DHT22;3243;50.958;7.012;2022-08-03T20:48:57;25.60;99.90
6421;DHT22;3243;50.958;7.012;2022-08-03T20:51:25;25.50;99.90
6421;DHT22;3243;50.958;7.012;2022-08-03T20:54:14;25.40;99.90
6421;DHT22;3243;50.958;7.012;2022-08-03T20:56:59;25.40;99.90
6421;DHT22;3243;50.958;7.012;2022-08-03T20:59:31;25.30;99.90
6421;DHT22;3243;50.958;7.012;2022-08-03T21:02:13;25.20;99.90
6421;DHT22;3243;50.958;7.012;2022-08-03T21:07:23;25.30;99.90
6421;DHT22;3243;50.958;7.012;2022-08-03T21:10:13;25.20;99.90
6421;DHT22;3243;50.958;7.012;2022-08-03T21:13:15;25.10;99.90
6421;DHT22;3243;50.958;7.012;2022-08-03T21:15:49;25.00;99.90
6421;DHT22;3243;50.958;7.012;2022-08-03T21:18:43;25.00;99.90
6421;DHT22;3243;50.958;7.012;2022-08-03T21:21:13;24.90;99.90
6421;DHT22;3243;50.958;7.012;2022-08-03T21:23:42;24.80;99.90
6421;DHT22;3243;50.958;7.012;2022-08-03T21:26:20;24.80;99.90
6421;DHT22;3243;50.958;7.012;2022-08-03T21:28:48;24.70;99.90
6421;DHT22;3243;50.958;7.012;2022-08-03T21:31:16;24.60;99.90
6421;DHT22;3243;50.958;7.012;2022-08-03T21:33:53;24.60;99.90
6421;DHT22;3243;50.958;7.012;2022-08-03T21:36:20;24.60;99.90
6421;DHT22;3243;50.958;7.012;2022-08-03T21:41:27;24.50;99.90
6421;DHT22;3243;50.958;7.012;2022-08-03T21:43:54;24.40;99.90
6421;DHT22;3243;50.958;7.012;2022-08-03T21:46:22;24.30;99.90
6421;DHT22;3243;50.958;7.012;2022-08-03T21:48:58;24.30;99.90
6421;DHT22;3243;50.958;7.012;2022-08-03T21:51:48;24.20;99.90
6421;DHT22;3243;50.958;7.012;2022-08-03T21:54:15;24.20;99.90
6421;DHT22;3243;50.958;7.012;2022-08-03T21:56:46;24.10;99.90
6421;DHT22;3243;50.958;7.012;2022-08-03T21:59:18;24.10;99.90
6421;DHT22;3243;50.958;7.012;2022-08-03T22:01:50;24.00;99.90
6421;DHT22;3243;50.958;7.012;2022-08-03T22:04:24;23.90;99.90
6421;DHT22;3243;50.958;7.012;2022-08-03T22:07:11;23.90;99.90
6421;DHT22;3243;50.958;7.012;2022-08-03T22:17:10;23.70;99.90
6421;DHT22;3243;50.958;7.012;2022-08-03T22:19:36;23.70;99.90
6421;DHT22;3243;50.958;7.012;2022-08-03T22:22:04;23.70;99.90
6421;DHT22;3243;50.958;7.012;2022-08-03T22:24:35;23.70;99.90
6421;DHT22;3243;50.958;7.012;2022-08-03T22:27:02;23.60;99.90
6421;DHT22;3243;50.958;7.012;2022-08-03T22:29:49;23.50;99.90
6421;DHT22;3243;50.958;7.012;2022-08-03T22:32:18;23.50;99.90